Time;durP1;ratioP1;P1;durP2;ratioP2;P2;SDS_P1;SDS_P2;PMS_P1;PMS_P2;Temp;Humidity;BMP_temperature;BMP_pressure;BME280_temperature;BME280_humidity;BME280_pressure;Samples;Min_cycle;Max_cycle;Signal;HPM_P1;HPM_P2
2021/01/06 00:01:07;;;;;;;21.03;12.30;;;1.90;85.90;;;2.26;72.55;97038.44;5042851;28;20053;-53
2021/01/06 00:03:34;;;;;;;21.93;12.33;;;1.90;85.60;;;2.28;71.88;97033.88;5042344;28;20049;-47
2021/01/06 00:06:08;;;;;;;19.67;10.80;;;1.90;85.70;;;2.29;71.62;97036.38;5041228;28;20465;-46
2021/01/06 00:08:36;;;;;;;;;;;1.90;85.60;;;2.29;71.49;97031.13;5042828;28;20049;-46
2021/01/06 00:11:04;;;;;;;18.63;9.03;;;1.90;85.70;;;2.29;71.72;97031.13;5042298;28;20117;-47
2021/01/06 00:13:31;;;;;;;16.43;9.50;;;1.90;85.30;;;2.26;71.52;97034.00;5024894;28;20060;-47
2021/01/06 00:15:59;;;;;;;18.10;9.07;;;1.90;85.30;;;2.20;72.10;97034.50;5040792;28;20143;-48
2021/01/06 00:18:27;;;;;;;19.80;9.10;;;1.80;85.40;;;2.17;71.85;97035.59;5024852;28;20233;-51
2021/01/06 00:20:56;;;;;;;17.43;9.10;;;1.70;85.70;;;2.16;71.46;97039.16;5042013;28;20052;-47
2021/01/06 00:23:25;;;;;;;16.23;9.67;;;1.70;85.90;;;2.15;71.71;97041.91;5041860;28;20049;-49
2021/01/06 00:25:53;;;;;;;16.80;8.87;;;1.70;85.80;;;2.12;71.88;97045.63;5024198;28;20267;-47
2021/01/06 00:28:22;;;;;;;14.57;8.93;;;1.70;86.00;;;2.17;71.70;97040.00;5024841;28;20041;-46
2021/01/06 00:30:58;;;;;;;16.60;8.80;;;1.80;86.00;;;2.21;72.11;97037.94;5040922;28;20045;-49
2021/01/06 00:33:30;;;;;;;17.77;8.93;;;1.80;85.90;;;2.22;71.86;97037.84;5042019;28;20229;-47
2021/01/06 00:36:09;;;;;;;18.17;8.83;;;1.90;85.70;;;2.24;71.99;97035.09;5041567;28;20045;-47
2021/01/06 00:38:38;;;;;;;17.13;8.87;;;2.00;85.40;;;2.22;72.00;97037.00;5041918;28;20049;-47
2021/01/06 00:41:07;;;;;;;14.77;8.23;;;1.80;85.20;;;2.23;71.88;97038.66;5041754;28;20049;-47
2021/01/06 00:43:34;;;;;;;16.20;8.63;;;1.80;85.50;;;2.24;72.13;97035.09;5041930;28;20176;-48
2021/01/06 00:46:02;;;;;;;13.00;6.90;;;1.90;85.30;;;2.25;71.80;97040.22;5040929;28;20049;-47
2021/01/06 00:48:30;;;;;;;14.17;8.33;;;1.90;85.30;;;2.20;72.05;97033.66;5039631;28;20053;-47
2021/01/06 00:51:00;;;;;;;14.93;8.23;;;1.80;85.00;;;2.19;71.26;97042.50;5041687;28;20050;-48
2021/01/06 00:53:28;;;;;;;14.90;7.90;;;1.70;85.30;;;2.16;71.75;97038.34;5039658;28;20060;-46
2021/01/06 00:56:03;;;;;;;14.33;7.40;;;1.70;85.70;;;2.17;71.48;97046.09;5023559;28;20054;-47
2021/01/06 00:58:33;;;;;;;13.83;8.30;;;1.80;85.60;;;2.20;71.76;97044.19;5039963;28;20060;-48
2021/01/06 01:01:03;;;;;;;19.07;9.70;;;1.90;85.40;;;2.25;71.49;97036.75;5008035;28;20056;-51
2021/01/06 01:03:39;;;;;;;18.63;10.47;;;1.90;85.30;;;2.24;71.51;97042.97;5023492;28;20071;-46
2021/01/06 01:06:07;;;;;;;20.20;8.73;;;1.90;84.90;;;2.18;71.21;97033.78;5006922;28;20084;-48
2021/01/06 01:08:34;;;;;;;16.33;9.13;;;1.70;85.00;;;2.09;71.70;97037.97;5041761;28;20053;-45
2021/01/06 01:11:02;;;;;;;15.23;7.27;;;1.60;85.50;;;2.03;71.78;97035.84;5041491;28;20049;-48
2021/01/06 01:13:29;;;;;;;16.00;8.53;;;1.50;86.00;;;2.03;71.32;97033.22;5041295;28;20049;-46
2021/01/06 01:15:58;;;;;;;18.40;7.53;;;1.50;86.10;;;1.97;72.00;97036.34;5041072;28;20059;-46
2021/01/06 01:18:28;;;;;;;11.33;7.00;;;1.50;85.80;;;1.96;71.83;97039.94;5041622;28;20046;-50
2021/01/06 01:20:59;;;;;;;16.17;8.00;;;1.50;85.70;;;1.95;71.41;97033.84;5041410;28;20226;-46
2021/01/06 01:23:28;;;;;;;14.13;7.53;;;1.50;86.00;;;1.96;71.61;97040.78;5040290;28;20064;-47
2021/01/06 01:25:57;;;;;;;17.50;9.03;;;1.50;86.10;;;1.91;71.58;97034.22;5023619;28;20041;-46
2021/01/06 01:28:26;;;;;;;16.17;8.27;;;1.50;86.10;;;1.90;71.80;97041.25;5023944;28;20045;-47
2021/01/06 01:30:56;;;;;;;19.07;8.30;;;1.50;86.50;;;1.92;71.59;97041.13;5040648;28;20368;-47
2021/01/06 01:33:25;;;;;;;15.80;8.03;;;1.50;86.10;;;1.92;71.78;97046.38;5041342;28;20060;-50
2021/01/06 01:36:00;;;;;;;16.97;8.67;;;1.50;86.40;;;1.93;71.61;97048.06;5040833;28;20050;-46
2021/01/06 01:38:30;;;;;;;12.87;7.93;;;1.50;86.50;;;1.93;71.62;97050.69;5041002;28;20053;-46
2021/01/06 01:40:59;;;;;;;15.47;7.60;;;1.50;86.50;;;1.95;71.69;97059.25;5041361;28;20245;-48
2021/01/06 01:43:28;;;;;;;16.13;8.20;;;1.50;86.40;;;1.97;71.95;97050.28;5041125;28;20341;-47
2021/01/06 01:45:56;;;;;;;16.60;8.40;;;1.50;86.60;;;2.04;71.59;97055.91;5040680;28;20049;-47
2021/01/06 01:48:39;;;;;;;14.83;8.47;;;1.60;86.30;;;1.97;71.92;97047.66;5041455;28;20071;-48
2021/01/06 01:51:24;;;;;;;15.83;7.97;;;1.50;86.00;;;1.96;71.83;97047.81;5040334;28;20106;-47
2021/01/06 01:54:03;;;;;;;17.17;8.50;;;1.50;86.60;;;1.88;71.95;97048.44;5041101;28;20045;-48
2021/01/06 01:56:40;;;;;;;16.80;8.07;;;1.40;86.80;;;1.92;72.22;97054.25;5040077;28;20060;-48
2021/01/06 01:59:17;;;;;;;18.03;8.50;;;1.40;86.90;;;1.94;71.81;97052.34;5043547;28;20049;-50
2021/01/06 02:01:48;;;;;;;14.50;8.23;;;1.50;87.00;;;1.88;71.97;97053.69;5026235;28;20049;-48
2021/01/06 02:04:35;;;;;;;19.00;8.70;;;1.40;86.50;;;1.90;72.22;97056.16;5026572;28;20060;-46
2021/01/06 02:07:20;;;;;;;14.30;8.20;;;1.40;86.90;;;1.95;72.09;97054.00;5027741;28;20038;-47
2021/01/06 02:10:00;;;;;;;14.60;8.50;;;1.50;86.80;;;1.90;71.76;97056.16;5027168;28;20060;-50
2021/01/06 02:12:44;;;;;;;14.17;8.70;;;1.50;86.40;;;1.90;71.87;97045.66;5028300;28;20045;-48
2021/01/06 02:15:37;;;;;;;12.25;7.70;;;1.50;86.50;;;1.84;71.92;97043.53;5027339;28;20057;-47
2021/01/06 02:18:08;;;;;;;14.23;7.60;;;1.40;86.30;;;1.79;71.73;97045.69;5028256;28;20523;-49
2021/01/06 02:20:36;;;;;;;14.27;8.93;;;1.30;87.00;;;1.77;72.25;97041.38;5027356;28;20041;-46
2021/01/06 02:23:03;;;;;;;17.10;8.20;;;1.30;87.10;;;1.77;72.40;97044.00;5026705;28;20045;-50
2021/01/06 02:25:33;;;;;;;16.33;8.73;;;1.30;86.90;;;1.71;72.50;97041.06;5026213;28;20048;-47
2021/01/06 02:28:01;;;;;;;18.77;9.60;;;1.20;86.90;;;1.75;72.53;97039.84;5009978;28;20357;-46
2021/01/06 02:30:29;;;;;;;16.33;8.70;;;1.30;87.40;;;1.75;71.85;97040.69;5025925;28;20053;-46
2021/01/06 02:32:57;;;;;;;13.47;7.23;;;1.30;87.20;;;1.79;72.02;97040.44;5026609;28;20049;-47
2021/01/06 02:35:24;;;;;;;16.33;8.73;;;1.30;87.20;;;1.72;72.29;97035.66;5026330;28;20042;-46
2021/01/06 02:37:52;;;;;;;17.33;8.37;;;1.30;87.10;;;1.77;72.48;97030.06;5026383;28;20245;-49
2021/01/06 02:40:19;;;;;;;13.53;7.50;;;1.30;87.20;;;1.75;72.61;97038.06;5044045;28;20045;-48
2021/01/06 02:42:47;;;;;;;17.63;9.40;;;1.30;86.80;;;1.71;72.53;97034.00;5026625;28;20041;-48
2021/01/06 02:45:16;;;;;;;17.67;8.83;;;1.30;87.30;;;1.72;72.44;97029.59;5043575;28;20240;-47
2021/01/06 02:47:49;;;;;;;14.00;7.90;;;1.30;87.20;;;1.75;72.45;97024.09;5044104;28;20053;-51
2021/01/06 02:50:23;;;;;;;16.58;7.88;;;1.30;87.10;;;1.75;72.48;97029.34;5026468;28;20045;-48
2021/01/06 02:53:05;;;;;;;16.17;8.57;;;1.30;87.00;;;1.76;71.71;97031.00;5026845;28;20049;-46
2021/01/06 02:55:35;;;;;;;14.80;8.90;;;1.30;87.10;;;1.71;72.46;97023.50;5025229;28;20234;-48
2021/01/06 02:58:12;;;;;;;16.53;8.23;;;1.30;87.10;;;1.77;72.14;97019.56;5026325;28;20045;-47
2021/01/06 03:00:39;;;;;;;14.17;8.73;;;1.30;87.20;;;1.81;71.94;97020.97;5026334;28;20053;-46
2021/01/06 03:03:12;;;;;;;15.47;8.60;;;1.40;87.10;;;1.84;72.32;97025.16;5043441;28;20107;-49
2021/01/06 03:05:45;;;;;;;16.17;8.93;;;1.40;86.80;;;1.87;71.96;97020.50;5025207;28;20057;-49
2021/01/06 03:08:17;;;;;;;17.73;8.20;;;1.40;86.60;;;1.84;71.70;97031.25;5026561;28;20113;-46
2021/01/06 03:10:44;;;;;;;14.77;8.47;;;1.40;86.40;;;1.82;72.06;97024.44;5042811;28;20045;-47
2021/01/06 03:13:13;;;;;;;14.67;8.37;;;1.40;86.80;;;1.82;72.17;97019.19;5043248;28;20041;-49
2021/01/06 03:15:40;;;;;;;14.20;8.17;;;1.40;86.70;;;1.74;71.95;97018.00;5042820;28;20049;-49
2021/01/06 03:18:07;;;;;;;13.57;7.77;;;1.30;86.70;;;1.80;72.26;97026.34;5025796;28;20280;-48
2021/01/06 03:20:41;;;;;;;15.43;7.63;;;1.30;87.10;;;1.82;71.82;97020.00;5043160;28;20052;-50
2021/01/06 03:23:30;;;;;;;15.25;8.07;;;1.30;86.80;;;1.69;72.18;97022.78;5043272;28;20048;-48
2021/01/06 03:26:03;;;;;;;16.13;8.43;;;1.20;87.30;;;1.68;72.51;97018.47;5042426;28;20053;-49
2021/01/06 03:28:34;;;;;;;12.37;6.93;;;1.20;87.50;;;1.62;72.43;97018.16;5026129;28;20457;-49
2021/01/06 03:31:06;;;;;;;14.93;8.00;;;1.10;87.70;;;1.67;72.52;97016.84;5025651;28;20042;-48
2021/01/06 03:33:45;;;;;;;16.77;8.10;;;1.20;87.70;;;1.68;72.69;97021.09;5042369;28;20227;-49
2021/01/06 03:36:23;;;;;;;15.00;8.27;;;1.30;87.40;;;1.67;72.89;97021.25;5025250;28;20348;-48
2021/01/06 03:39:06;;;;;;;14.70;7.77;;;1.30;87.60;;;1.69;72.36;97014.09;5025461;28;20053;-45
2021/01/06 03:41:35;;;;;;;14.93;7.17;;;1.20;87.10;;;1.67;72.31;97008.13;5026005;28;20056;-47
2021/01/06 03:44:08;;;;;;;13.90;8.00;;;1.20;87.10;;;1.65;72.08;97008.25;5025285;28;20063;-48
2021/01/06 03:46:48;;;;;;;15.10;8.23;;;1.20;87.30;;;1.67;71.95;97010.75;5024999;28;20049;-48
2021/01/06 03:50:02;;;;;;;14.70;7.70;;;1.20;87.30;;;1.61;72.17;97011.22;5025777;28;20233;-46
2021/01/06 03:52:35;;;;;;;13.67;8.50;;;1.10;87.30;;;1.53;72.12;97006.56;5027390;28;20045;-47
2021/01/06 03:55:56;;;;;;;12.10;6.90;;;1.10;87.50;;;1.60;71.91;97012.19;5042192;28;20053;-47
2021/01/06 03:58:45;;;;;;;12.50;7.20;;;1.20;87.30;;;1.62;72.49;97007.66;5041408;28;20060;-47
2021/01/06 04:01:52;;;;;;;14.60;6.77;;;1.20;87.40;;;1.59;72.24;97003.50;5025039;28;20367;-51
2021/01/06 04:05:06;;;;;;;12.47;7.13;;;1.10;86.80;;;1.48;72.76;97000.88;5042437;28;20053;-48
2021/01/06 04:07:55;;;;;;;12.87;6.70;;;1.10;87.40;;;1.52;72.24;97002.28;5042280;28;20056;-49
2021/01/06 04:10:34;;;;;;;14.27;8.27;;;1.00;87.50;;;1.51;72.15;96998.00;5026520;28;20233;-49
2021/01/06 04:13:02;;;;;;;11.87;6.87;;;1.10;87.70;;;1.56;72.58;96998.47;5041273;28;20053;-47
2021/01/06 04:15:29;;;;;;;14.57;8.17;;;1.20;87.20;;;1.51;72.34;96998.84;5041782;28;20045;-48
2021/01/06 04:17:57;;;;;;;9.57;6.17;;;1.10;86.50;;;1.48;72.97;96998.25;5041827;28;20071;-48
2021/01/06 04:20:29;;;;;;;12.47;6.83;;;1.00;87.10;;;1.53;72.19;97002.19;5023998;28;20060;-48
2021/01/06 04:23:01;;;;;;;16.17;7.23;;;1.10;87.20;;;1.53;72.72;96999.56;5040734;28;20249;-46
2021/01/06 04:25:41;;;;;;;14.30;8.17;;;1.10;86.90;;;1.57;72.71;96997.50;5024581;28;20055;-48
2021/01/06 04:28:13;;;;;;;14.57;7.60;;;1.10;87.30;;;1.58;72.04;96996.56;5041912;28;20051;-47
2021/01/06 04:30:58;;;;;;;15.17;8.77;;;1.10;87.10;;;1.56;72.07;96998.47;5024431;28;20055;-47
2021/01/06 04:33:42;;;;;;;14.90;7.97;;;1.10;86.80;;;1.61;72.52;96998.97;5041995;28;20045;-49
2021/01/06 04:36:28;;;;;;;13.98;8.57;;;1.20;86.90;;;1.66;72.12;96993.34;5023910;28;20248;-49
2021/01/06 04:39:01;;;;;;;18.23;8.47;;;1.20;87.00;;;1.71;72.23;96999.88;5008429;28;20049;-48
2021/01/06 04:41:47;;;;;;;12.03;7.43;;;1.30;86.80;;;1.67;72.40;96998.47;5041463;28;20052;-48
2021/01/06 04:44:54;;;;;;;11.53;7.00;;;1.20;86.40;;;1.67;72.02;97006.34;5024379;28;20053;-49
2021/01/06 04:48:03;;;;;;;12.90;6.50;;;1.30;86.60;;;1.53;72.18;96999.56;5041721;28;20049;-48
2021/01/06 04:50:54;;;;;;;14.33;7.00;;;1.10;86.50;;;1.45;72.39;96994.06;5041842;28;20045;-48
2021/01/06 04:53:24;;;;;;;11.57;7.10;;;1.00;87.40;;;1.46;72.21;96997.53;5041644;28;20068;-47
2021/01/06 04:56:04;;;;;;;12.37;7.13;;;1.00;87.50;;;1.50;72.43;96996.34;5040796;28;20060;-48
2021/01/06 04:59:07;;;;;;;12.20;6.77;;;1.10;87.50;;;1.50;72.26;96994.53;5041766;28;20046;-50
2021/01/06 05:02:51;;;;;;;11.77;7.10;;;1.10;87.70;;;1.55;71.99;97000.28;5026904;28;20048;-50
2021/01/06 05:05:39;;;;;;;11.77;6.97;;;1.20;87.00;;;1.57;72.37;97003.59;4940969;29;20069;-48
2021/01/06 05:08:26;;;;;;;13.33;8.63;;;1.10;87.10;;;1.60;72.51;97004.31;5019090;28;20053;-47
2021/01/06 05:11:02;;;;;;;15.03;8.47;;;1.20;87.00;;;1.61;72.18;97005.97;5041646;28;20072;-47
2021/01/06 05:13:57;;;;;;;13.13;7.03;;;1.20;86.60;;;1.60;72.26;97004.31;5040766;28;20076;-47
2021/01/06 05:16:32;;;;;;;11.23;6.90;;;1.20;86.70;;;1.62;72.77;97002.41;5008229;28;20045;-50
2021/01/06 05:19:00;;;;;;;11.75;6.80;;;1.20;86.80;;;1.61;72.50;97006.81;5041564;28;20242;-48
2021/01/06 05:21:28;;;;;;;12.73;7.77;;;1.20;86.70;;;1.57;72.10;97006.22;5024234;28;20055;-47
2021/01/06 05:24:11;;;;;;;12.57;6.70;;;1.10;86.80;;;1.43;72.53;97006.47;5024194;28;20041;-47
2021/01/06 05:26:38;;;;;;;13.63;6.53;;;1.00;86.80;;;1.49;71.85;97006.00;5024600;28;20045;-50
2021/01/06 05:29:29;;;;;;;11.77;6.60;;;1.00;87.10;;;1.34;72.88;97007.19;5023419;28;20049;-48
2021/01/06 05:31:56;;;;;;;10.50;6.20;;;1.00;87.10;;;1.37;73.24;97005.16;5067066;22;20058;-46
2021/01/06 05:34:26;;;;;;;12.87;7.10;;;0.90;87.60;;;1.42;72.32;96999.56;5084540;28;20044;-44
2021/01/06 05:36:54;;;;;;;14.83;7.53;;;1.00;88.00;;;1.46;72.83;97003.59;5083282;28;20351;-45
2021/01/06 05:39:28;;;;;;;12.63;6.77;;;1.10;88.60;;;1.50;72.45;97006.84;5085079;28;20055;-46
2021/01/06 05:42:31;;;;;;;13.00;6.87;;;1.10;87.50;;;1.55;72.52;97007.28;5083943;28;20052;-43
2021/01/06 05:44:59;;;;;;;11.27;6.77;;;1.20;87.30;;;1.60;72.71;97014.81;5083795;28;20052;-44
2021/01/06 05:47:43;;;;;;;12.30;6.87;;;1.20;87.30;;;1.56;72.66;97009.78;5084724;28;20055;-43
2021/01/06 05:50:22;;;;;;;;;;;1.10;87.20;;;1.53;72.30;97010.06;5084465;28;20051;-45
2021/01/06 05:53:12;;;;;;;13.00;7.33;;;1.10;87.60;;;1.49;72.52;97011.25;5084897;28;20115;-43
2021/01/06 05:55:47;;;;;;;9.60;6.07;;;1.10;87.10;;;1.52;72.52;97012.78;5083358;28;20067;-45
2021/01/06 05:58:26;;;;;;;10.07;6.70;;;1.10;87.20;;;1.53;72.67;97004.81;5083780;28;20048;-45
2021/01/06 06:01:02;;;;;;;11.77;7.13;;;1.10;87.40;;;1.52;72.13;97012.78;5080837;28;20049;-46
2021/01/06 06:03:52;;;;;;;13.00;6.60;;;1.10;87.50;;;1.54;72.38;97011.69;5084658;28;20046;-43
2021/01/06 06:06:40;;;;;;;12.23;6.20;;;1.10;87.40;;;1.58;72.77;97007.88;5084133;28;20048;-43
2021/01/06 06:09:28;;;;;;;11.20;6.40;;;1.20;87.20;;;1.63;72.72;97010.16;5084686;28;20044;-43
2021/01/06 06:12:37;;;;;;;8.73;5.67;;;1.30;86.80;;;1.71;72.17;97015.63;5083693;28;20344;-45
2021/01/06 06:15:41;;;;;;;11.37;6.03;;;1.30;86.80;;;1.76;72.22;97024.00;5083707;28;20052;-43
2021/01/06 06:18:18;;;;;;;9.60;5.50;;;1.40;86.40;;;1.78;72.55;97026.47;5084435;28;20058;-43
2021/01/06 06:21:08;;;;;;;8.17;5.23;;;1.40;86.20;;;1.75;72.14;97021.47;5084065;28;20363;-44
2021/01/06 06:24:06;;;;;;;10.13;5.60;;;1.30;85.80;;;1.70;72.29;97019.19;5083560;28;20056;-45
2021/01/06 06:26:34;;;;;;;9.27;6.17;;;1.20;86.40;;;1.68;72.30;97018.47;5082996;28;20054;-46
2021/01/06 06:29:28;;;;;;;10.10;6.00;;;1.20;86.40;;;1.60;72.03;97017.44;5084918;28;20235;-44
2021/01/06 06:31:59;;;;;;;7.78;5.18;;;1.10;86.80;;;1.53;72.58;97027.56;5083921;28;20068;-43
2021/01/06 06:34:39;;;;;;;9.73;6.03;;;1.10;87.10;;;1.54;71.94;97026.63;5083026;28;20040;-44
2021/01/06 06:37:20;;;;;;;10.90;5.93;;;1.10;87.30;;;1.53;72.28;97030.19;5083835;28;20256;-43
2021/01/06 06:40:08;;;;;;;10.50;5.97;;;1.10;86.80;;;1.55;72.76;97039.63;5082919;28;20244;-44
2021/01/06 06:42:56;;;;;;;10.00;5.87;;;1.10;87.20;;;1.59;71.99;97032.34;5083697;28;20052;-46
2021/01/06 06:45:38;;;;;;;7.73;4.97;;;1.20;87.10;;;1.62;72.14;97037.34;5082863;28;20052;-45
2021/01/06 06:48:38;;;;;;;10.03;5.63;;;1.30;86.90;;;1.66;72.61;97035.31;5083713;28;20044;-44
2021/01/06 06:51:19;;;;;;;8.37;5.63;;;1.30;86.30;;;1.71;72.09;97041.88;5082965;28;20055;-45
2021/01/06 06:54:15;;;;;;;9.10;5.50;;;1.30;86.50;;;1.73;72.30;97033.88;5083124;28;20240;-44
2021/01/06 06:56:55;;;;;;;10.83;5.77;;;1.30;86.40;;;1.67;72.38;97037.00;5083177;28;20481;-45
2021/01/06 07:00:07;;;;;;;9.63;5.83;;;1.20;86.10;;;1.68;72.13;97044.72;5083675;28;20041;-44
2021/01/06 07:02:46;;;;;;;13.97;6.23;;;1.20;86.60;;;1.68;72.00;97042.09;5077657;28;20064;-44
2021/01/06 07:05:35;;;;;;;11.93;6.37;;;1.20;86.80;;;1.71;72.37;97051.53;5082870;28;20098;-45
2021/01/06 07:08:18;;;;;;;11.57;6.77;;;1.20;86.80;;;1.75;72.37;97048.56;5083570;28;20044;-46
2021/01/06 07:10:56;;;;;;;10.20;6.40;;;1.30;86.50;;;1.71;71.90;97043.69;5082500;28;20050;-46
2021/01/06 07:13:26;;;;;;;10.23;6.47;;;1.30;86.30;;;1.71;72.39;97046.31;5083360;28;20055;-47
2021/01/06 07:16:01;;;;;;;10.77;6.37;;;1.20;86.30;;;1.67;72.20;97040.44;5081826;28;20071;-48
2021/01/06 07:18:48;;;;;;;10.20;5.80;;;1.20;86.70;;;1.61;72.35;97040.94;5082247;28;20051;-43
2021/01/06 07:21:23;;;;;;;8.40;5.73;;;1.20;87.50;;;1.65;72.06;97046.75;5082265;28;20051;-46
2021/01/06 07:24:09;;;;;;;11.27;6.57;;;1.20;86.70;;;1.68;72.49;97041.28;5083120;28;20351;-44
2021/01/06 07:26:59;;;;;;;10.50;6.00;;;1.20;86.70;;;1.70;72.21;97048.06;5081653;28;20343;-46
2021/01/06 07:29:33;;;;;;;9.53;6.07;;;1.30;86.40;;;1.68;72.34;97052.59;5082428;28;20055;-49
2021/01/06 07:32:05;;;;;;;;;;;1.30;86.50;;;1.56;72.23;97062.28;5082352;28;20051;-45
2021/01/06 07:34:54;;;;;;;8.60;5.53;;;1.20;86.20;;;1.61;72.03;97050.56;5081772;28;20195;-44
2021/01/06 07:37:46;;;;;;;10.00;6.10;;;1.20;87.10;;;1.62;72.00;97055.72;5081829;28;20051;-46
2021/01/06 07:40:40;;;;;;;8.97;5.73;;;1.20;86.70;;;1.55;72.31;97054.50;5065380;28;20235;-44
2021/01/06 07:43:07;;;;;;;14.20;7.40;;;1.10;87.10;;;1.56;72.53;97056.19;5082550;28;20200;-47
2021/01/06 07:45:44;;;;;;;12.73;7.40;;;1.10;87.20;;;1.51;72.08;97063.56;5082327;28;20247;-48
2021/01/06 07:48:15;;;;;;;10.90;7.53;;;1.10;87.50;;;1.51;72.64;97064.44;5081275;28;20054;-47
2021/01/06 07:51:02;;;;;;;12.73;9.20;;;1.10;87.20;;;1.54;72.50;97072.06;5081394;28;20054;-44
2021/01/06 07:53:48;;;;;;;11.17;6.43;;;1.10;87.40;;;1.51;72.71;97069.69;5082992;28;20049;-49
2021/01/06 07:56:40;;;;;;;10.73;6.73;;;1.10;87.30;;;1.47;72.50;97070.03;5081868;28;20161;-45
2021/01/06 07:59:43;;;;;;;8.90;5.53;;;1.10;87.50;;;1.48;72.56;97076.94;5081436;28;20067;-43
2021/01/06 08:02:21;;;;;;;12.03;6.70;;;1.10;87.70;;;1.48;72.94;97075.16;5080622;28;20048;-45
2021/01/06 08:04:55;;;;;;;11.97;5.80;;;1.10;87.30;;;1.46;72.82;97071.00;5078637;28;20366;-46
2021/01/06 08:07:26;;;;;;;10.43;6.13;;;1.10;87.50;;;1.55;72.47;97075.50;5082285;28;20102;-44
2021/01/06 08:09:54;;;;;;;11.00;7.20;;;1.10;87.40;;;1.52;72.43;97078.38;5081207;28;20045;-46
2021/01/06 08:12:23;;;;;;;11.27;6.83;;;1.10;87.70;;;1.40;72.65;97084.53;5079112;28;20047;-46
2021/01/06 08:15:19;;;;;;;10.67;6.53;;;1.00;87.50;;;1.38;72.94;97087.31;5081013;28;20047;-44
2021/01/06 08:18:21;;;;;;;12.57;8.07;;;1.00;88.30;;;1.49;72.76;97083.84;5080442;28;20352;-45
2021/01/06 08:21:09;;;;;;;12.33;7.93;;;1.10;88.10;;;1.53;72.67;97090.53;5080613;28;20057;-44
2021/01/06 08:23:58;;;;;;;13.27;6.67;;;1.10;87.90;;;1.58;72.96;97091.03;5074628;28;20056;-47
2021/01/06 08:26:29;;;;;;;12.57;7.50;;;1.20;87.70;;;1.42;73.61;97088.75;5058695;28;20037;-43
2021/01/06 08:29:34;;;;;;;13.83;9.13;;;1.00;87.70;;;1.47;72.46;97093.63;5075047;28;20048;-47
2021/01/06 08:32:13;;;;;;;15.38;7.82;;;1.00;88.40;;;1.34;73.07;97091.13;5074885;28;20044;-43
2021/01/06 08:34:53;;;;;;;12.70;7.70;;;0.90;88.40;;;1.40;72.87;97092.41;5060784;28;20042;-45
2021/01/06 08:37:31;;;;;;;11.83;7.00;;;0.90;88.60;;;1.37;73.15;97101.38;5062833;28;20040;-43
2021/01/06 08:40:02;;;;;;;14.07;9.27;;;0.90;88.50;;;1.39;72.72;97091.59;5059117;28;20051;-44
2021/01/06 08:42:50;;;;;;;16.17;9.03;;;1.00;88.80;;;1.46;73.14;97091.97;5079834;28;20051;-44
2021/01/06 08:45:33;;;;;;;12.97;8.20;;;1.10;88.40;;;1.43;73.04;97092.19;5080424;28;20236;-46
2021/01/06 08:48:30;;;;;;;12.33;7.13;;;1.00;88.30;;;1.43;72.84;97090.41;5062670;28;20047;-44
2021/01/06 08:51:07;;;;;;;14.17;8.47;;;1.10;88.10;;;1.43;73.36;97093.03;5070250;28;20056;-45
2021/01/06 08:53:41;;;;;;;11.13;7.23;;;1.00;88.20;;;1.41;73.34;97094.09;5079799;28;20064;-44
2021/01/06 08:56:23;;;;;;;13.63;8.88;;;1.00;88.60;;;1.27;73.43;97103.03;5062143;28;20047;-44
2021/01/06 08:58:56;;;;;;;13.03;7.00;;;0.90;89.30;;;1.29;73.38;97094.09;5080568;28;20057;-44
2021/01/06 09:01:41;;;;;;;16.52;8.50;;;0.90;89.20;;;1.37;73.35;97096.94;5080636;28;20078;-48
2021/01/06 09:04:22;;;;;;;11.63;6.90;;;1.00;89.00;;;1.41;73.47;97094.94;5079896;28;20056;-44
2021/01/06 09:07:07;;;;;;;12.07;7.13;;;1.00;89.50;;;1.39;73.41;97102.09;5062302;28;20044;-44
2021/01/06 09:10:05;;;;;;;13.33;7.57;;;1.00;88.10;;;1.37;73.54;97102.19;5084434;28;20044;-45
2021/01/06 09:12:48;;;;;;;12.80;7.73;;;1.00;88.70;;;1.45;73.04;97112.09;5065140;28;20040;-43
2021/01/06 09:15:42;;;;;;;13.37;7.23;;;1.00;88.60;;;1.55;73.11;97107.84;5067955;28;20041;-43
2021/01/06 09:18:40;;;;;;;13.70;7.78;;;1.20;88.60;;;1.65;73.41;97115.84;5066357;28;20078;-44
2021/01/06 09:21:16;;;;;;;13.93;7.70;;;1.30;87.90;;;1.58;72.97;97102.34;5079878;28;20040;-44
2021/01/06 09:23:57;;;;;;;15.03;7.47;;;1.20;87.50;;;1.64;72.82;97110.69;5058300;28;20045;-43
2021/01/06 09:26:27;;;;;;;12.17;6.93;;;1.20;88.00;;;1.67;72.83;97113.09;5067569;28;20040;-44
2021/01/06 09:29:13;;;;;;;11.87;7.03;;;1.30;87.30;;;1.71;73.06;97112.72;5066525;28;20036;-44
2021/01/06 09:31:52;;;;;;;14.70;7.60;;;1.30;87.30;;;1.63;73.20;97112.50;5063506;28;20489;-48
2021/01/06 09:34:34;;;;;;;14.67;7.90;;;1.20;87.60;;;1.52;72.75;97120.34;5063528;28;20036;-47
2021/01/06 09:37:04;;;;;;;11.70;6.87;;;1.10;88.00;;;1.28;73.96;97121.28;5065339;28;20239;-44
2021/01/06 09:39:35;;;;;;;16.13;9.60;;;0.90;88.70;;;1.37;73.61;97122.34;5067571;28;20373;-47
2021/01/06 09:42:06;;;;;;;13.13;7.80;;;0.90;89.10;;;1.21;74.29;97125.31;5067310;28;20057;-46
2021/01/06 09:44:33;;;;;;;15.20;7.40;;;0.80;89.60;;;1.07;74.32;97120.28;5067395;28;20071;-43
2021/01/06 09:47:31;;;;;;;15.60;7.80;;;0.70;90.20;;;1.09;74.12;97121.00;5084619;28;20070;-45
2021/01/06 09:50:13;;;;;;;13.00;7.40;;;0.70;90.60;;;1.17;73.60;97129.13;5084551;28;20056;-43
2021/01/06 09:52:45;;;;;;;12.03;7.50;;;0.80;89.90;;;1.21;74.01;97129.72;5069156;28;20244;-46
2021/01/06 09:55:23;;;;;;;14.67;8.17;;;0.80;89.70;;;1.18;73.95;97118.50;5065928;28;20044;-44
2021/01/06 09:58:28;;;;;;;12.47;8.77;;;0.80;90.00;;;1.15;74.96;97125.78;5067440;28;20052;-44
2021/01/06 10:01:41;;;;;;;12.27;7.67;;;0.80;90.10;;;1.09;74.61;97127.06;5046558;28;20054;-42
2021/01/06 10:04:24;;;;;;;14.23;7.57;;;0.80;90.20;;;1.23;74.34;97119.94;5068187;28;20492;-43
2021/01/06 10:07:13;;;;;;;13.63;9.13;;;0.90;90.00;;;1.31;74.21;97122.81;5067419;28;20313;-44
2021/01/06 10:09:45;;;;;;;12.17;7.20;;;1.00;89.40;;;1.32;73.93;97124.50;5084515;28;20232;-43
2021/01/06 10:13:10;;;;;;;13.07;7.67;;;1.10;88.70;;;1.44;73.85;97118.31;5084678;28;20051;-42
2021/01/06 10:16:16;;;;;;;17.13;10.07;;;1.10;88.90;;;1.46;73.88;97115.59;5084084;28;20044;-42
2021/01/06 10:19:28;;;;;;;15.87;8.33;;;1.10;88.40;;;1.41;73.99;97120.34;5067301;28;20344;-41
2021/01/06 10:22:52;;;;;;;16.30;7.90;;;1.10;89.20;;;1.47;73.79;97118.06;5084322;28;20044;-41
2021/01/06 10:26:18;;;;;;;12.50;7.43;;;1.10;88.90;;;1.53;73.43;97116.75;5027426;28;20057;-42
2021/01/06 10:28:50;;;;;;;11.27;6.53;;;1.20;88.20;;;1.47;73.85;97115.44;4951279;28;20169;-42
2021/01/06 10:31:25;;;;;;;10.83;6.50;;;1.10;88.60;;;1.51;73.67;97106.41;5083987;28;20059;-42
2021/01/06 10:34:09;;;;;;;12.87;8.03;;;1.10;88.30;;;1.63;73.17;97109.00;5066769;28;20348;-42
2021/01/06 10:37:05;;;;;;;15.02;7.70;;;1.30;88.50;;;1.55;73.67;97117.47;5082585;28;20051;-43
2021/01/06 10:39:39;;;;;;;14.37;7.73;;;1.20;88.30;;;1.57;73.52;97116.44;5083965;28;20256;-42
2021/01/06 10:42:21;;;;;;;14.00;8.07;;;1.20;88.70;;;1.61;73.48;97116.16;5083641;28;20048;-42
2021/01/06 10:44:50;;;;;;;14.63;7.80;;;1.20;88.50;;;1.61;73.69;97105.69;5082781;28;20048;-45
2021/01/06 10:47:42;;;;;;;15.50;8.57;;;1.20;88.50;;;1.54;72.87;97105.34;5083751;28;20233;-42
2021/01/06 10:50:22;;;;;;;14.63;8.63;;;1.10;88.50;;;1.46;73.45;97112.97;5067030;28;20222;-42
2021/01/06 10:53:26;;;;;;;15.47;8.73;;;1.10;89.20;;;1.34;74.09;97112.13;5083822;28;20040;-42
2021/01/06 10:56:10;;;;;;;14.67;8.83;;;1.00;89.10;;;1.30;73.81;97101.00;5066901;28;20344;-41
2021/01/06 10:58:53;;;;;;;16.10;8.80;;;0.90;89.80;;;1.26;74.25;97107.44;5066457;28;20052;-46
2021/01/06 11:01:24;;;;;;;16.60;11.27;;;0.90;90.10;;;1.16;74.40;97109.06;5081900;28;20337;-45
2021/01/06 11:04:25;;;;;;;19.47;11.47;;;0.80;90.70;;;1.25;74.48;97108.38;5082630;28;20447;-43
2021/01/06 11:07:19;;;;;;;18.10;10.07;;;0.90;90.60;;;1.27;74.71;97098.59;5081486;28;20048;-42
2021/01/06 11:10:14;;;;;;;16.73;10.33;;;1.00;90.30;;;1.33;74.34;97097.31;5083153;28;20106;-41
2021/01/06 11:13:14;;;;;;;15.52;9.90;;;1.00;90.10;;;1.41;74.41;97100.19;5082936;28;20036;-42
2021/01/06 11:16:26;;;;;;;17.00;9.60;;;1.10;89.90;;;1.29;74.52;97103.75;5066472;28;20240;-42
2021/01/06 11:18:56;;;;;;;14.27;9.20;;;1.00;90.40;;;1.21;75.40;97099.09;5083298;28;20055;-41
2021/01/06 11:21:39;;;;;;;16.33;9.20;;;0.90;90.40;;;1.37;74.87;97098.75;5065432;28;20344;-41
2021/01/06 11:24:52;;;;;;;18.07;9.43;;;1.00;90.30;;;1.53;73.76;97093.16;5067239;28;20044;-44